createdAt,value
2023-02-06T00:01:06.506Z,0.93
2023-02-06T00:06:08.684Z,0.91
2023-02-06T00:11:13.388Z,0.86
2023-02-06T00:16:16.317Z,0.80
2023-02-06T00:21:20.226Z,0.65
2023-02-06T00:26:22.767Z,0.55
2023-02-06T00:31:24.453Z,0.45
2023-02-06T00:36:26.301Z,0.39
2023-02-06T00:41:27.996Z,0.39
2023-02-06T00:46:29.800Z,0.45
2023-02-06T00:51:31.508Z,0.42
2023-02-06T00:56:33.565Z,0.38
2023-02-06T01:01:35.220Z,0.35
2023-02-06T01:06:36.958Z,0.35
2023-02-06T01:11:38.654Z,0.22
2023-02-06T01:16:40.372Z,0.19
2023-02-06T01:21:42.133Z,0.34
2023-02-06T01:26:43.932Z,0.47
2023-02-06T01:31:45.746Z,0.40
2023-02-06T01:36:47.508Z,0.49
2023-02-06T01:41:50.999Z,0.64
2023-02-06T01:46:55.782Z,0.71
2023-02-06T01:52:07.523Z,0.79
2023-02-06T01:57:12.481Z,0.80
2023-02-06T02:02:14.348Z,0.71
2023-02-06T02:07:31.793Z,0.66
2023-02-06T02:12:33.674Z,0.69
2023-02-06T02:18:02.762Z,0.70
2023-02-06T02:23:30.491Z,0.61
2023-02-06T02:28:34.162Z,0.54
2023-02-06T02:34:13.806Z,0.44
2023-02-06T02:39:21.518Z,0.24
2023-02-06T02:44:43.055Z,0.14
2023-02-06T02:49:45.878Z,0.10
2023-02-06T02:54:47.719Z,0.09
2023-02-06T02:59:51.791Z,0.06
2023-02-06T03:05:00.725Z,-0.02
2023-02-06T03:10:31.489Z,-0.05
2023-02-06T03:15:50.510Z,-0.29
2023-02-06T03:20:52.808Z,-0.59
2023-02-06T03:25:58.242Z,-0.57
2023-02-06T03:31:05.588Z,-0.58
2023-02-06T03:36:09.963Z,-0.72
2023-02-06T03:41:13.771Z,-0.76
2023-02-06T03:46:18.111Z,-0.73
2023-02-06T03:51:28.360Z,-0.91
2023-02-06T03:56:47.053Z,-0.90
2023-02-06T04:01:53.029Z,-0.87
2023-02-06T04:06:57.672Z,-0.91
2023-02-06T04:11:59.320Z,-0.95
2023-02-06T04:17:00.981Z,-1.16
2023-02-06T04:22:03.436Z,-1.31
2023-02-06T04:27:07.025Z,-1.32
2023-02-06T04:32:09.172Z,-1.36
2023-02-06T04:37:12.480Z,-1.40
2023-02-06T04:42:14.129Z,-1.40
2023-02-06T04:47:15.858Z,-1.48
2023-02-06T04:52:17.635Z,-1.55
2023-02-06T04:57:19.421Z,-1.62
2023-02-06T05:02:21.324Z,-1.69
2023-02-06T05:07:23.007Z,-1.69
2023-02-06T05:12:24.899Z,-1.74
2023-02-06T05:17:26.623Z,-1.76
2023-02-06T05:22:28.438Z,-1.81
2023-02-06T05:27:30.108Z,-1.84
2023-02-06T05:32:31.762Z,-1.86
2023-02-06T05:37:33.510Z,-1.87
2023-02-06T05:42:35.840Z,-1.85
2023-02-06T05:47:37.488Z,-1.86
2023-02-06T05:52:39.224Z,-2.01
2023-02-06T05:57:41.018Z,-2.13
2023-02-06T06:02:42.664Z,-2.23
2023-02-06T06:07:44.362Z,-2.23
2023-02-06T06:12:46.094Z,-2.25
2023-02-06T06:17:47.831Z,-2.16
2023-02-06T06:22:49.510Z,-2.20
2023-02-06T06:27:51.209Z,-2.19
2023-02-06T06:32:52.936Z,-2.24
2023-02-06T06:37:54.579Z,-2.41
2023-02-06T06:42:56.301Z,-2.43
2023-02-06T06:47:58.112Z,-2.46
2023-02-06T06:52:59.880Z,-2.38
2023-02-06T06:58:01.617Z,-2.35
2023-02-06T07:03:03.444Z,-2.32
2023-02-06T07:08:05.529Z,-2.33
2023-02-06T07:13:07.176Z,-2.54
2023-02-06T07:18:11.382Z,-2.43
2023-02-06T07:23:13.289Z,-2.33
2023-02-06T07:28:15.070Z,-2.22
2023-02-06T07:33:16.971Z,-2.13
2023-02-06T07:38:18.587Z,-2.01
2023-02-06T07:43:20.308Z,-1.96
2023-02-06T07:48:22.575Z,-1.84
2023-02-06T07:53:24.173Z,-1.72
2023-02-06T07:58:26.061Z,-1.68
2023-02-06T08:03:27.708Z,-1.56
2023-02-06T08:08:29.335Z,-1.47
2023-02-06T08:13:31.350Z,-1.37
2023-02-06T08:18:33.944Z,-1.22
2023-02-06T08:23:35.495Z,-1.05
2023-02-06T08:28:38.007Z,-0.91
2023-02-06T08:33:39.899Z,-0.74
2023-02-06T08:38:42.372Z,-0.65
2023-02-06T08:43:45.170Z,-0.54
2023-02-06T08:48:46.872Z,-0.43
2023-02-06T08:53:48.651Z,-0.28
2023-02-06T08:58:50.413Z,-0.26
2023-02-06T09:04:00.335Z,-0.22
2023-02-06T09:09:02.614Z,-0.06
2023-02-06T09:14:05.689Z,0.03
2023-02-06T09:19:10.671Z,0.07
2023-02-06T09:24:12.380Z,0.17
2023-02-06T09:29:14.254Z,0.34
2023-02-06T09:34:15.967Z,0.42
2023-02-06T09:39:17.978Z,0.47
2023-02-06T09:44:24.401Z,0.52
2023-02-06T09:49:39.333Z,0.55
2023-02-06T09:54:56.728Z,0.75
2023-02-06T10:00:02.757Z,0.89
2023-02-06T10:05:22.317Z,1.03
2023-02-06T10:10:37.843Z,1.14
2023-02-06T10:15:47.531Z,1.12
2023-02-06T10:21:01.660Z,1.16
2023-02-06T10:26:17.062Z,1.22
2023-02-06T10:31:30.535Z,1.28
2023-02-06T10:37:10.358Z,1.34
2023-02-06T10:42:33.648Z,1.47
2023-02-06T10:47:46.079Z,1.55
2023-02-06T10:52:48.692Z,1.59
2023-02-06T10:57:56.865Z,1.63
2023-02-06T11:03:07.579Z,1.65
2023-02-06T11:08:20.394Z,1.64
2023-02-06T11:13:33.757Z,1.55
2023-02-06T11:18:39.052Z,1.57
2023-02-06T11:23:42.234Z,1.55
2023-02-06T11:29:08.814Z,1.58
2023-02-06T11:34:25.987Z,1.57
2023-02-06T11:39:34.099Z,1.70
2023-02-06T11:44:41.053Z,1.88
2023-02-06T11:49:42.817Z,1.95
2023-02-06T11:54:54.465Z,1.98
2023-02-06T12:00:20.774Z,2.01
2023-02-06T12:05:28.549Z,1.99
2023-02-06T12:10:36.343Z,2.01
2023-02-06T12:15:48.052Z,1.91
2023-02-06T12:21:05.245Z,2.03
2023-02-06T12:26:18.083Z,2.13
2023-02-06T12:31:26.653Z,2.19
2023-02-06T12:36:35.209Z,2.19
2023-02-06T12:42:01.794Z,2.64
2023-02-06T12:47:13.974Z,2.97
2023-02-06T12:52:33.818Z,3.00
2023-02-06T12:57:37.129Z,3.13
2023-02-06T13:02:51.830Z,3.04
2023-02-06T13:07:57.130Z,2.82
2023-02-06T13:12:59.657Z,2.92
2023-02-06T13:18:01.502Z,2.97
2023-02-06T13:23:12.086Z,2.86
2023-02-06T13:28:23.032Z,2.88
2023-02-06T13:33:27.019Z,2.89
2023-02-06T13:38:35.034Z,2.90
2023-02-06T13:43:37.413Z,2.96
2023-02-06T13:49:33.094Z,2.97
2023-02-06T13:54:53.246Z,2.86
2023-02-06T14:00:17.352Z,2.74
2023-02-06T14:05:22.406Z,2.65
2023-02-06T14:11:10.306Z,2.48
2023-02-06T14:16:50.572Z,2.40
2023-02-06T14:22:12.597Z,2.40
2023-02-06T14:27:26.565Z,2.37
2023-02-06T14:32:28.517Z,2.37
2023-02-06T14:38:01.013Z,2.38
2023-02-06T14:43:07.990Z,2.41
2023-02-06T14:48:34.284Z,2.35
2023-02-06T14:53:40.648Z,2.27
2023-02-06T14:58:46.573Z,2.13
2023-02-06T15:03:52.437Z,2.10
2023-02-06T15:08:54.308Z,2.08
2023-02-06T15:13:56.483Z,2.04
2023-02-06T15:19:22.463Z,2.06
2023-02-06T15:24:51.706Z,2.02
2023-02-06T15:29:54.376Z,2.08
2023-02-06T15:34:56.217Z,2.04
2023-02-06T15:40:06.615Z,2.06
2023-02-06T15:45:17.758Z,1.99
2023-02-06T15:50:22.077Z,1.77
2023-02-06T15:55:27.211Z,1.64
2023-02-06T16:00:34.975Z,1.52
2023-02-06T16:05:42.041Z,1.54
2023-02-06T16:10:49.996Z,1.47
2023-02-06T16:16:02.521Z,1.49
2023-02-06T16:21:16.287Z,1.38
2023-02-06T16:26:27.639Z,1.39
2023-02-06T16:31:31.775Z,1.41
2023-02-06T16:36:33.837Z,1.52
2023-02-06T16:41:38.143Z,1.60
2023-02-06T16:46:40.477Z,1.60
2023-02-06T16:51:44.043Z,1.66
2023-02-06T16:56:46.283Z,1.71
2023-02-06T17:01:47.971Z,1.73
2023-02-06T17:06:50.287Z,1.54
2023-02-06T17:11:53.189Z,1.51
2023-02-06T17:16:55.650Z,1.55
2023-02-06T17:21:57.452Z,1.56
2023-02-06T17:27:01.363Z,1.51
2023-02-06T17:32:03.309Z,1.45
2023-02-06T17:37:08.056Z,1.42
2023-02-06T17:42:09.696Z,1.46
2023-02-06T17:47:11.460Z,1.46
2023-02-06T17:52:13.305Z,1.45
2023-02-06T17:57:15.024Z,1.47
2023-02-06T18:02:16.961Z,1.53
2023-02-06T18:07:18.743Z,1.55
2023-02-06T18:12:20.537Z,1.51
2023-02-06T18:17:22.540Z,1.45
2023-02-06T18:22:24.225Z,1.48
2023-02-06T18:27:25.919Z,1.52
2023-02-06T18:32:27.777Z,1.52
2023-02-06T18:37:29.725Z,1.43
2023-02-06T18:42:50.039Z,1.40
2023-02-06T18:47:52.140Z,1.40
2023-02-06T18:52:53.878Z,1.40
2023-02-06T18:57:55.595Z,1.31
2023-02-06T19:02:58.318Z,1.20
2023-02-06T19:07:59.856Z,1.12
2023-02-06T19:13:01.499Z,1.01
2023-02-06T19:18:05.516Z,0.90
2023-02-06T19:23:08.405Z,0.77
2023-02-06T19:28:10.393Z,0.71
2023-02-06T19:33:12.157Z,0.52
2023-02-06T19:38:13.812Z,0.42
2023-02-06T19:43:16.177Z,0.32
2023-02-06T19:48:17.995Z,0.27
2023-02-06T19:53:19.652Z,0.14
2023-02-06T19:58:21.330Z,0.07
2023-02-06T20:03:23.431Z,-0.36
2023-02-06T20:08:25.208Z,-0.48
2023-02-06T20:13:27.257Z,-0.43
2023-02-06T20:18:33.562Z,-0.43
2023-02-06T20:23:38.317Z,-0.64
2023-02-06T20:28:39.987Z,-0.59
2023-02-06T20:33:42.821Z,-0.60
2023-02-06T20:38:49.431Z,-0.72
2023-02-06T20:43:51.404Z,-0.73
2023-02-06T20:49:02.242Z,-0.79
2023-02-06T20:54:04.538Z,-0.85
2023-02-06T20:59:07.066Z,-0.85
2023-02-06T21:04:11.269Z,-0.84
2023-02-06T21:09:12.902Z,-0.86
2023-02-06T21:14:14.857Z,-0.80
2023-02-06T21:19:18.941Z,-0.82
2023-02-06T21:24:20.618Z,-0.91
2023-02-06T21:29:25.089Z,-1.17
2023-02-06T21:34:26.857Z,-1.36
2023-02-06T21:39:30.465Z,-1.27
2023-02-06T21:44:32.150Z,-1.19
2023-02-06T21:49:33.848Z,-1.16
2023-02-06T21:54:35.571Z,-1.14
2023-02-06T21:59:38.404Z,-1.14
2023-02-06T22:04:40.099Z,-1.20
2023-02-06T22:09:41.987Z,-1.37
2023-02-06T22:14:43.662Z,-1.39
2023-02-06T22:19:45.769Z,-1.35
2023-02-06T22:24:50.454Z,-1.38
2023-02-06T22:29:52.202Z,-1.43
2023-02-06T22:34:54.046Z,-1.49
2023-02-06T22:39:55.881Z,-1.66
2023-02-06T22:44:57.653Z,-1.73
2023-02-06T22:49:59.468Z,-1.77
2023-02-06T22:55:03.165Z,-1.79
2023-02-06T23:00:09.277Z,-1.72
2023-02-06T23:05:11.209Z,-1.75
2023-02-06T23:10:12.825Z,-1.71
2023-02-06T23:15:14.585Z,-1.76
2023-02-06T23:20:16.482Z,-1.82
2023-02-06T23:25:18.140Z,-1.85
2023-02-06T23:30:20.201Z,-1.88
2023-02-06T23:35:21.923Z,-1.91
2023-02-06T23:40:23.708Z,-1.92
2023-02-06T23:45:26.240Z,-1.90
2023-02-06T23:50:28.134Z,-1.91
2023-02-06T23:55:30.600Z,-1.94
